Current | Forecast
Updated: 9:30 AM MSK on June 27, 2017
Observed at Niznij Novgorod, Russia
Temperature 68°F
Humidity 64%
Dew Point 55°F
Wind West at 9 mph
Pressure 29.62 in (Steady)
Conditions Scattered Clouds
Visibility 6.2 miles
UV 6 out of 16
Clouds Scattered Clouds (SCT) : 1900 ft
Yesterday's Maximum 77°F
Yesterday's Minimum 54°F approx.
Yesterday's Cooling Degree Days N/A approx.
Sunrise3:22 AM MSK
Sunset8:57 PM MSK
Moon Rise7:36 AM MSK
Moon Set10:56 PM MSK
Moon PhaseMoon Phase
Waxing Crescent
Raw METARMETAR UWGG 270630Z 27004MPS 210V310 9999 SCT019 20/13 Q1003 WS R18R R18R/090070 NOSIG RMK QFE745


Monday
. High: 71° F.
Tuesday
. High: 66° F.
Wednesday
. High: 57° F.
Thursday
. High: 57° F.
Friday
. High: 57° F.
Saturday
. High: 60° F.
Sunday
. High: 57° F.
Monday
. High: 59° F.

Units: English | Metric

Find the Weather for any City, State or Zipcode, or Country:

U.S. State List | Severe Weather | Tropical Storms | Ski Conditions
United States | Canada | Central America | South America | Asia | Europe | Australia | Africa | Islands

Weather Underground

© Copyright 2017
The Weather Company, LLC